sensor_id;sensor_type;location;lat;lon;timestamp;temperature;humidity
16384;DHT22;8301;51.440;6.610;2022-10-31T00:01:56;13.90;99.90
16384;DHT22;8301;51.440;6.610;2022-10-31T00:04:23;13.90;99.90
16384;DHT22;8301;51.440;6.610;2022-10-31T00:06:50;13.90;99.90
16384;DHT22;8301;51.440;6.610;2022-10-31T00:09:17;13.90;99.90
16384;DHT22;8301;51.440;6.610;2022-10-31T00:11:43;13.90;99.90
16384;DHT22;8301;51.440;6.610;2022-10-31T00:14:10;13.80;99.90
16384;DHT22;8301;51.440;6.610;2022-10-31T00:16:37;13.90;99.90
16384;DHT22;8301;51.440;6.610;2022-10-31T00:19:05;13.90;99.90
16384;DHT22;8301;51.440;6.610;2022-10-31T00:21:33;13.80;99.90
16384;DHT22;8301;51.440;6.610;2022-10-31T00:24:00;13.80;99.90
16384;DHT22;8301;51.440;6.610;2022-10-31T00:26:27;13.80;99.90
16384;DHT22;8301;51.440;6.610;2022-10-31T00:28:55;13.80;99.90
16384;DHT22;8301;51.440;6.610;2022-10-31T00:31:22;13.80;99.90
16384;DHT22;8301;51.440;6.610;2022-10-31T00:33:48;13.80;99.90
16384;DHT22;8301;51.440;6.610;2022-10-31T00:36:16;13.80;99.90
16384;DHT22;8301;51.440;6.610;2022-10-31T00:38:44;13.80;99.90
16384;DHT22;8301;51.440;6.610;2022-10-31T00:41:11;13.70;99.90
16384;DHT22;8301;51.440;6.610;2022-10-31T00:43:38;13.70;99.90
16384;DHT22;8301;51.440;6.610;2022-10-31T00:46:05;13.60;99.90
16384;DHT22;8301;51.440;6.610;2022-10-31T00:48:33;13.70;99.90
16384;DHT22;8301;51.440;6.610;2022-10-31T00:51:00;13.70;99.90
16384;DHT22;8301;51.440;6.610;2022-10-31T00:53:27;13.70;99.90
16384;DHT22;8301;51.440;6.610;2022-10-31T00:55:54;13.70;99.90
16384;DHT22;8301;51.440;6.610;2022-10-31T00:58:20;13.70;99.90
16384;DHT22;8301;51.440;6.610;2022-10-31T01:00:47;13.80;99.90
16384;DHT22;8301;51.440;6.610;2022-10-31T01:03:16;13.80;99.90
16384;DHT22;8301;51.440;6.610;2022-10-31T01:05:43;13.70;99.90
16384;DHT22;8301;51.440;6.610;2022-10-31T01:08:10;13.70;99.90
16384;DHT22;8301;51.440;6.610;2022-10-31T01:10:36;13.70;99.90
16384;DHT22;8301;51.440;6.610;2022-10-31T01:13:03;13.60;99.90
16384;DHT22;8301;51.440;6.610;2022-10-31T01:15:30;13.60;99.90
16384;DHT22;8301;51.440;6.610;2022-10-31T01:17:57;13.50;99.90
16384;DHT22;8301;51.440;6.610;2022-10-31T01:20:24;13.50;99.90
16384;DHT22;8301;51.440;6.610;2022-10-31T01:22:50;13.40;99.90
16384;DHT22;8301;51.440;6.610;2022-10-31T01:25:17;13.40;99.90
16384;DHT22;8301;51.440;6.610;2022-10-31T01:27:44;13.40;99.90
16384;DHT22;8301;51.440;6.610;2022-10-31T01:30:11;13.30;99.90
16384;DHT22;8301;51.440;6.610;2022-10-31T01:32:38;13.30;99.90
16384;DHT22;8301;51.440;6.610;2022-10-31T01:35:05;13.20;99.90
16384;DHT22;8301;51.440;6.610;2022-10-31T01:37:32;13.20;99.90
16384;DHT22;8301;51.440;6.610;2022-10-31T01:39:59;13.10;99.90
16384;DHT22;8301;51.440;6.610;2022-10-31T01:42:27;13.00;99.90
16384;DHT22;8301;51.440;6.610;2022-10-31T01:44:56;13.00;99.90
16384;DHT22;8301;51.440;6.610;2022-10-31T01:47:27;12.90;99.90
16384;DHT22;8301;51.440;6.610;2022-10-31T01:49:57;12.80;99.90
16384;DHT22;8301;51.440;6.610;2022-10-31T01:52:27;12.80;99.90
16384;DHT22;8301;51.440;6.610;2022-10-31T01:54:58;12.80;99.90
16384;DHT22;8301;51.440;6.610;2022-10-31T01:57:24;12.80;99.90
16384;DHT22;8301;51.440;6.610;2022-10-31T01:59:53;12.60;99.90
16384;DHT22;8301;51.440;6.610;2022-10-31T02:02:20;12.60;99.90
16384;DHT22;8301;51.440;6.610;2022-10-31T02:04:48;12.50;99.90
16384;DHT22;8301;51.440;6.610;2022-10-31T02:07:16;12.50;99.90
16384;DHT22;8301;51.440;6.610;2022-10-31T02:09:45;12.50;99.90
16384;DHT22;8301;51.440;6.610;2022-10-31T02:12:12;12.60;99.90
16384;DHT22;8301;51.440;6.610;2022-10-31T02:14:39;12.50;99.90
16384;DHT22;8301;51.440;6.610;2022-10-31T02:17:07;12.50;99.90
16384;DHT22;8301;51.440;6.610;2022-10-31T02:22:27;12.50;99.90
16384;DHT22;8301;51.440;6.610;2022-10-31T02:32:46;12.30;99.90
16384;DHT22;8301;51.440;6.610;2022-10-31T02:35:21;12.20;99.90
16384;DHT22;8301;51.440;6.610;2022-10-31T02:42:50;12.10;99.90
16384;DHT22;8301;51.440;6.610;2022-10-31T02:45:21;12.20;99.90
16384;DHT22;8301;51.440;6.610;2022-10-31T02:47:48;12.20;99.90
16384;DHT22;8301;51.440;6.610;2022-10-31T02:50:31;12.20;99.90
16384;DHT22;8301;51.440;6.610;2022-10-31T02:53:00;12.20;99.90
16384;DHT22;8301;51.440;6.610;2022-10-31T02:58:19;12.10;99.90
16384;DHT22;8301;51.440;6.610;2022-10-31T03:00:24;12.10;99.90
16384;DHT22;8301;51.440;6.610;2022-10-31T03:13:20;12.10;99.90
16384;DHT22;8301;51.440;6.610;2022-10-31T03:15:47;12.10;99.90
16384;DHT22;8301;51.440;6.610;2022-10-31T03:18:37;12.10;99.90
16384;DHT22;8301;51.440;6.610;2022-10-31T03:21:01;12.00;99.90
16384;DHT22;8301;51.440;6.610;2022-10-31T03:23:28;12.10;99.90
16384;DHT22;8301;51.440;6.610;2022-10-31T03:25:57;12.00;99.90
16384;DHT22;8301;51.440;6.610;2022-10-31T03:28:27;11.90;99.90
16384;DHT22;8301;51.440;6.610;2022-10-31T03:30:53;11.90;99.90
16384;DHT22;8301;51.440;6.610;2022-10-31T03:33:24;11.90;99.90
16384;DHT22;8301;51.440;6.610;2022-10-31T03:35:50;11.80;99.90
16384;DHT22;8301;51.440;6.610;2022-10-31T03:38:19;11.70;99.90
16384;DHT22;8301;51.440;6.610;2022-10-31T03:40:46;11.70;99.90
16384;DHT22;8301;51.440;6.610;2022-10-31T03:43:16;11.70;99.90
16384;DHT22;8301;51.440;6.610;2022-10-31T03:45:44;11.70;99.90
16384;DHT22;8301;51.440;6.610;2022-10-31T03:48:13;11.70;99.90
16384;DHT22;8301;51.440;6.610;2022-10-31T03:50:52;11.70;99.90
16384;DHT22;8301;51.440;6.610;2022-10-31T03:53:26;11.70;99.90
16384;DHT22;8301;51.440;6.610;2022-10-31T03:55:53;11.70;99.90
16384;DHT22;8301;51.440;6.610;2022-10-31T04:01:07;11.60;99.90
16384;DHT22;8301;51.440;6.610;2022-10-31T04:03:35;11.60;99.90
16384;DHT22;8301;51.440;6.610;2022-10-31T04:06:06;11.60;99.90
16384;DHT22;8301;51.440;6.610;2022-10-31T04:08:37;11.60;99.90
16384;DHT22;8301;51.440;6.610;2022-10-31T04:11:03;11.60;99.90
16384;DHT22;8301;51.440;6.610;2022-10-31T04:13:31;11.60;99.90
16384;DHT22;8301;51.440;6.610;2022-10-31T04:15:59;11.70;99.90
16384;DHT22;8301;51.440;6.610;2022-10-31T04:18:26;11.60;99.90
16384;DHT22;8301;51.440;6.610;2022-10-31T04:21:03;11.70;99.90
16384;DHT22;8301;51.440;6.610;2022-10-31T04:23:30;11.70;99.90
16384;DHT22;8301;51.440;6.610;2022-10-31T04:25:57;11.60;99.90
16384;DHT22;8301;51.440;6.610;2022-10-31T04:28:24;11.60;99.90
16384;DHT22;8301;51.440;6.610;2022-10-31T04:30:51;11.60;99.90
16384;DHT22;8301;51.440;6.610;2022-10-31T04:33:18;11.60;99.90
16384;DHT22;8301;51.440;6.610;2022-10-31T04:35:45;11.60;99.90
16384;DHT22;8301;51.440;6.610;2022-10-31T04:38:12;11.70;99.90
16384;DHT22;8301;51.440;6.610;2022-10-31T04:40:39;11.70;99.90
16384;DHT22;8301;51.440;6.610;2022-10-31T04:43:06;11.70;99.90
16384;DHT22;8301;51.440;6.610;2022-10-31T04:45:32;11.70;99.90
16384;DHT22;8301;51.440;6.610;2022-10-31T04:48:01;11.70;99.90
16384;DHT22;8301;51.440;6.610;2022-10-31T04:50:28;11.80;99.90
16384;DHT22;8301;51.440;6.610;2022-10-31T04:52:55;11.80;99.90
16384;DHT22;8301;51.440;6.610;2022-10-31T04:55:22;11.80;99.90
16384;DHT22;8301;51.440;6.610;2022-10-31T04:57:49;11.90;99.90
16384;DHT22;8301;51.440;6.610;2022-10-31T05:00:18;11.80;99.90
16384;DHT22;8301;51.440;6.610;2022-10-31T05:02:46;11.70;99.90
16384;DHT22;8301;51.440;6.610;2022-10-31T05:05:13;11.70;99.90
16384;DHT22;8301;51.440;6.610;2022-10-31T05:07:41;11.70;99.90
16384;DHT22;8301;51.440;6.610;2022-10-31T05:10:09;11.70;99.90
16384;DHT22;8301;51.440;6.610;2022-10-31T05:12:36;11.80;99.90
16384;DHT22;8301;51.440;6.610;2022-10-31T05:15:03;11.80;99.90
16384;DHT22;8301;51.440;6.610;2022-10-31T05:17:31;11.70;99.90
16384;DHT22;8301;51.440;6.610;2022-10-31T05:19:58;11.70;99.90
16384;DHT22;8301;51.440;6.610;2022-10-31T05:22:25;11.70;99.90
16384;DHT22;8301;51.440;6.610;2022-10-31T05:24:51;11.70;99.90
16384;DHT22;8301;51.440;6.610;2022-10-31T05:27:18;11.70;99.90
16384;DHT22;8301;51.440;6.610;2022-10-31T05:29:45;11.60;99.90
16384;DHT22;8301;51.440;6.610;2022-10-31T05:32:12;11.60;99.90
16384;DHT22;8301;51.440;6.610;2022-10-31T05:34:39;11.60;99.90
16384;DHT22;8301;51.440;6.610;2022-10-31T05:37:05;11.60;99.90
16384;DHT22;8301;51.440;6.610;2022-10-31T05:39:32;11.60;99.90
16384;DHT22;8301;51.440;6.610;2022-10-31T05:41:59;11.40;99.90
16384;DHT22;8301;51.440;6.610;2022-10-31T05:44:26;11.40;99.90
16384;DHT22;8301;51.440;6.610;2022-10-31T05:46:53;11.40;99.90
16384;DHT22;8301;51.440;6.610;2022-10-31T05:49:19;11.40;99.90
16384;DHT22;8301;51.440;6.610;2022-10-31T05:51:46;11.30;99.90
16384;DHT22;8301;51.440;6.610;2022-10-31T05:54:13;11.40;99.90
16384;DHT22;8301;51.440;6.610;2022-10-31T05:56:40;11.40;99.90
16384;DHT22;8301;51.440;6.610;2022-10-31T05:59:07;11.50;99.90
16384;DHT22;8301;51.440;6.610;2022-10-31T06:01:33;11.50;99.90
16384;DHT22;8301;51.440;6.610;2022-10-31T06:04:00;11.40;99.90
16384;DHT22;8301;51.440;6.610;2022-10-31T06:06:27;11.40;99.90
16384;DHT22;8301;51.440;6.610;2022-10-31T06:08:54;11.40;99.90
16384;DHT22;8301;51.440;6.610;2022-10-31T06:11:21;11.30;99.90
16384;DHT22;8301;51.440;6.610;2022-10-31T06:13:48;11.30;99.90
16384;DHT22;8301;51.440;6.610;2022-10-31T06:16:14;11.20;99.90
16384;DHT22;8301;51.440;6.610;2022-10-31T06:18:48;11.20;99.90
16384;DHT22;8301;51.440;6.610;2022-10-31T06:21:14;11.30;99.90
16384;DHT22;8301;51.440;6.610;2022-10-31T06:23:41;11.30;99.90
16384;DHT22;8301;51.440;6.610;2022-10-31T06:26:08;11.30;99.90
16384;DHT22;8301;51.440;6.610;2022-10-31T06:28:35;11.20;99.90
16384;DHT22;8301;51.440;6.610;2022-10-31T06:31:02;11.20;99.90
16384;DHT22;8301;51.440;6.610;2022-10-31T06:33:28;11.20;99.90
16384;DHT22;8301;51.440;6.610;2022-10-31T06:35:55;11.10;99.90
16384;DHT22;8301;51.440;6.610;2022-10-31T06:38:22;11.10;99.90
16384;DHT22;8301;51.440;6.610;2022-10-31T06:40:49;11.10;99.90
16384;DHT22;8301;51.440;6.610;2022-10-31T06:43:16;11.10;99.90
16384;DHT22;8301;51.440;6.610;2022-10-31T06:45:42;11.10;99.90
16384;DHT22;8301;51.440;6.610;2022-10-31T06:48:09;11.10;99.90
16384;DHT22;8301;51.440;6.610;2022-10-31T06:50:36;11.10;99.90
16384;DHT22;8301;51.440;6.610;2022-10-31T06:53:03;11.10;99.90
16384;DHT22;8301;51.440;6.610;2022-10-31T06:55:30;11.10;99.90
16384;DHT22;8301;51.440;6.610;2022-10-31T06:58:01;11.20;99.90
16384;DHT22;8301;51.440;6.610;2022-10-31T07:00:29;11.20;99.90
16384;DHT22;8301;51.440;6.610;2022-10-31T07:03:00;11.20;99.90
16384;DHT22;8301;51.440;6.610;2022-10-31T07:05:27;11.30;99.90
16384;DHT22;8301;51.440;6.610;2022-10-31T07:07:55;11.30;99.90
16384;DHT22;8301;51.440;6.610;2022-10-31T07:10:23;11.20;99.90
16384;DHT22;8301;51.440;6.610;2022-10-31T07:12:58;11.20;99.90
16384;DHT22;8301;51.440;6.610;2022-10-31T07:15:25;11.20;99.90
16384;DHT22;8301;51.440;6.610;2022-10-31T07:17:52;11.30;99.90
16384;DHT22;8301;51.440;6.610;2022-10-31T07:20:19;11.30;99.90
16384;DHT22;8301;51.440;6.610;2022-10-31T07:22:46;11.40;99.90
16384;DHT22;8301;51.440;6.610;2022-10-31T07:25:13;11.40;99.90
16384;DHT22;8301;51.440;6.610;2022-10-31T07:27:40;11.40;99.90
16384;DHT22;8301;51.440;6.610;2022-10-31T07:30:08;11.40;99.90
16384;DHT22;8301;51.440;6.610;2022-10-31T07:32:42;11.40;99.90
16384;DHT22;8301;51.440;6.610;2022-10-31T07:35:10;11.50;99.90
16384;DHT22;8301;51.440;6.610;2022-10-31T07:37:37;11.50;99.90
16384;DHT22;8301;51.440;6.610;2022-10-31T07:40:07;11.50;99.90
16384;DHT22;8301;51.440;6.610;2022-10-31T07:42:39;11.60;99.90
16384;DHT22;8301;51.440;6.610;2022-10-31T07:45:09;11.70;99.90
16384;DHT22;8301;51.440;6.610;2022-10-31T07:47:42;11.70;99.90
16384;DHT22;8301;51.440;6.610;2022-10-31T07:50:06;11.80;99.90
16384;DHT22;8301;51.440;6.610;2022-10-31T07:52:33;11.90;99.90
16384;DHT22;8301;51.440;6.610;2022-10-31T07:55:00;11.90;99.90
16384;DHT22;8301;51.440;6.610;2022-10-31T07:57:26;12.00;99.90
16384;DHT22;8301;51.440;6.610;2022-10-31T07:59:53;12.10;99.90
16384;DHT22;8301;51.440;6.610;2022-10-31T08:02:21;12.20;99.90
16384;DHT22;8301;51.440;6.610;2022-10-31T08:04:48;12.20;99.90
16384;DHT22;8301;51.440;6.610;2022-10-31T08:07:15;12.30;99.90
16384;DHT22;8301;51.440;6.610;2022-10-31T08:09:42;12.30;99.90
16384;DHT22;8301;51.440;6.610;2022-10-31T08:12:09;12.40;99.90
16384;DHT22;8301;51.440;6.610;2022-10-31T08:14:35;12.40;99.90
16384;DHT22;8301;51.440;6.610;2022-10-31T08:17:02;12.50;99.90
16384;DHT22;8301;51.440;6.610;2022-10-31T08:19:29;12.50;99.90
16384;DHT22;8301;51.440;6.610;2022-10-31T08:21:56;12.60;99.90
16384;DHT22;8301;51.440;6.610;2022-10-31T08:24:24;12.60;99.90
16384;DHT22;8301;51.440;6.610;2022-10-31T08:26:50;12.70;99.90
16384;DHT22;8301;51.440;6.610;2022-10-31T08:29:18;12.70;99.90
16384;DHT22;8301;51.440;6.610;2022-10-31T08:31:45;12.90;99.90
16384;DHT22;8301;51.440;6.610;2022-10-31T08:34:11;12.90;99.90
16384;DHT22;8301;51.440;6.610;2022-10-31T08:36:38;13.00;99.90
16384;DHT22;8301;51.440;6.610;2022-10-31T08:39:05;13.10;99.90
16384;DHT22;8301;51.440;6.610;2022-10-31T08:41:33;13.20;99.90
16384;DHT22;8301;51.440;6.610;2022-10-31T08:44:01;13.30;99.90
16384;DHT22;8301;51.440;6.610;2022-10-31T08:46:27;13.50;99.90
16384;DHT22;8301;51.440;6.610;2022-10-31T08:48:54;13.60;99.90
16384;DHT22;8301;51.440;6.610;2022-10-31T08:51:21;13.80;99.90
16384;DHT22;8301;51.440;6.610;2022-10-31T08:53:48;14.00;99.90
16384;DHT22;8301;51.440;6.610;2022-10-31T08:56:15;14.00;99.90
16384;DHT22;8301;51.440;6.610;2022-10-31T08:58:41;14.40;99.90
16384;DHT22;8301;51.440;6.610;2022-10-31T09:01:08;14.60;99.90
16384;DHT22;8301;51.440;6.610;2022-10-31T09:03:35;14.80;99.90
16384;DHT22;8301;51.440;6.610;2022-10-31T09:06:02;14.90;99.90
16384;DHT22;8301;51.440;6.610;2022-10-31T09:08:39;15.10;99.90
16384;DHT22;8301;51.440;6.610;2022-10-31T09:11:08;15.20;99.90
16384;DHT22;8301;51.440;6.610;2022-10-31T09:13:35;15.20;99.90
16384;DHT22;8301;51.440;6.610;2022-10-31T09:16:01;15.10;99.90
16384;DHT22;8301;51.440;6.610;2022-10-31T09:18:28;15.10;99.90
16384;DHT22;8301;51.440;6.610;2022-10-31T09:20:57;15.00;99.90
16384;DHT22;8301;51.440;6.610;2022-10-31T09:23:25;14.90;99.90
16384;DHT22;8301;51.440;6.610;2022-10-31T09:25:53;14.70;99.90
16384;DHT22;8301;51.440;6.610;2022-10-31T09:28:21;14.70;99.90
16384;DHT22;8301;51.440;6.610;2022-10-31T09:30:49;14.70;99.90
16384;DHT22;8301;51.440;6.610;2022-10-31T09:33:17;14.70;99.90
16384;DHT22;8301;51.440;6.610;2022-10-31T09:35:46;14.70;99.90
16384;DHT22;8301;51.440;6.610;2022-10-31T09:38:19;14.70;99.90
16384;DHT22;8301;51.440;6.610;2022-10-31T09:40:42;14.70;99.90
16384;DHT22;8301;51.440;6.610;2022-10-31T09:43:22;14.60;99.90
16384;DHT22;8301;51.440;6.610;2022-10-31T09:45:50;14.70;99.90
16384;DHT22;8301;51.440;6.610;2022-10-31T09:48:25;14.70;99.90
16384;DHT22;8301;51.440;6.610;2022-10-31T09:50:51;14.70;99.90
16384;DHT22;8301;51.440;6.610;2022-10-31T09:53:33;14.70;99.90
16384;DHT22;8301;51.440;6.610;2022-10-31T09:56:00;14.70;99.90
16384;DHT22;8301;51.440;6.610;2022-10-31T09:58:28;14.70;99.90
16384;DHT22;8301;51.440;6.610;2022-10-31T10:01:00;14.80;99.90
16384;DHT22;8301;51.440;6.610;2022-10-31T10:03:41;14.80;99.90
16384;DHT22;8301;51.440;6.610;2022-10-31T10:06:32;15.00;99.90
16384;DHT22;8301;51.440;6.610;2022-10-31T10:08:54;15.20;99.90
16384;DHT22;8301;51.440;6.610;2022-10-31T10:14:16;15.50;99.90
16384;DHT22;8301;51.440;6.610;2022-10-31T10:29:49;16.00;99.90
16384;DHT22;8301;51.440;6.610;2022-10-31T10:32:18;16.00;99.90
16384;DHT22;8301;51.440;6.610;2022-10-31T10:34:49;16.10;99.90
16384;DHT22;8301;51.440;6.610;2022-10-31T10:37:30;16.10;99.90
16384;DHT22;8301;51.440;6.610;2022-10-31T10:40:15;16.20;99.90
16384;DHT22;8301;51.440;6.610;2022-10-31T10:42:45;16.20;99.90
16384;DHT22;8301;51.440;6.610;2022-10-31T10:45:30;16.20;99.90
16384;DHT22;8301;51.440;6.610;2022-10-31T10:48:16;16.20;99.90
16384;DHT22;8301;51.440;6.610;2022-10-31T10:50:48;16.30;99.90
16384;DHT22;8301;51.440;6.610;2022-10-31T10:53:31;16.40;99.90
16384;DHT22;8301;51.440;6.610;2022-10-31T10:55:59;16.50;99.90
16384;DHT22;8301;51.440;6.610;2022-10-31T10:58:25;16.40;99.90
16384;DHT22;8301;51.440;6.610;2022-10-31T11:00:55;16.40;99.90
16384;DHT22;8301;51.440;6.610;2022-10-31T11:03:22;16.50;99.90
16384;DHT22;8301;51.440;6.610;2022-10-31T11:05:55;16.50;99.90
16384;DHT22;8301;51.440;6.610;2022-10-31T11:08:24;16.50;99.90
16384;DHT22;8301;51.440;6.610;2022-10-31T11:13:35;16.70;99.90
16384;DHT22;8301;51.440;6.610;2022-10-31T11:16:04;16.70;99.90
16384;DHT22;8301;51.440;6.610;2022-10-31T11:18:36;16.80;99.90
16384;DHT22;8301;51.440;6.610;2022-10-31T11:21:03;16.80;99.90
16384;DHT22;8301;51.440;6.610;2022-10-31T11:23:31;16.80;99.90
16384;DHT22;8301;51.440;6.610;2022-10-31T11:25:59;16.90;99.90
16384;DHT22;8301;51.440;6.610;2022-10-31T11:28:27;17.00;99.90
16384;DHT22;8301;51.440;6.610;2022-10-31T11:30:55;17.00;99.90
16384;DHT22;8301;51.440;6.610;2022-10-31T11:33:45;17.10;99.90
16384;DHT22;8301;51.440;6.610;2022-10-31T11:35:51;17.10;99.90
16384;DHT22;8301;51.440;6.610;2022-10-31T11:38:20;17.20;99.90
16384;DHT22;8301;51.440;6.610;2022-10-31T11:40:54;17.30;99.90
16384;DHT22;8301;51.440;6.610;2022-10-31T11:43:21;17.30;99.90
16384;DHT22;8301;51.440;6.610;2022-10-31T11:45:51;17.30;99.90
16384;DHT22;8301;51.440;6.610;2022-10-31T11:48:22;17.40;99.90
16384;DHT22;8301;51.440;6.610;2022-10-31T11:50:54;17.50;99.90
16384;DHT22;8301;51.440;6.610;2022-10-31T11:53:26;17.50;99.90
16384;DHT22;8301;51.440;6.610;2022-10-31T11:55:58;17.60;99.90
16384;DHT22;8301;51.440;6.610;2022-10-31T11:58:21;17.70;99.90
16384;DHT22;8301;51.440;6.610;2022-10-31T12:00:49;17.70;99.90
16384;DHT22;8301;51.440;6.610;2022-10-31T12:06:02;17.90;99.90
16384;DHT22;8301;51.440;6.610;2022-10-31T12:08:28;18.00;99.90
16384;DHT22;8301;51.440;6.610;2022-10-31T12:13:42;18.30;99.90
16384;DHT22;8301;51.440;6.610;2022-10-31T12:19:00;18.30;99.90
16384;DHT22;8301;51.440;6.610;2022-10-31T12:24:27;18.30;99.90
16384;DHT22;8301;51.440;6.610;2022-10-31T12:29:41;18.50;99.90
16384;DHT22;8301;51.440;6.610;2022-10-31T12:32:26;18.50;99.90
16384;DHT22;8301;51.440;6.610;2022-10-31T12:37:41;18.50;99.90
16384;DHT22;8301;51.440;6.610;2022-10-31T12:40:10;18.50;99.90
16384;DHT22;8301;51.440;6.610;2022-10-31T12:45:43;18.60;99.90
16384;DHT22;8301;51.440;6.610;2022-10-31T12:48:10;18.70;99.90
16384;DHT22;8301;51.440;6.610;2022-10-31T12:50:44;18.80;99.90
16384;DHT22;8301;51.440;6.610;2022-10-31T12:55:56;18.80;99.90
16384;DHT22;8301;51.440;6.610;2022-10-31T13:01:09;19.00;99.90
16384;DHT22;8301;51.440;6.610;2022-10-31T13:06:09;19.10;99.90
16384;DHT22;8301;51.440;6.610;2022-10-31T13:08:41;19.10;99.90
16384;DHT22;8301;51.440;6.610;2022-10-31T13:11:14;19.20;99.90
16384;DHT22;8301;51.440;6.610;2022-10-31T13:16:38;19.30;99.90
16384;DHT22;8301;51.440;6.610;2022-10-31T13:24:44;19.30;99.90
16384;DHT22;8301;51.440;6.610;2022-10-31T13:27:03;19.20;99.90
16384;DHT22;8301;51.440;6.610;2022-10-31T13:29:35;19.30;99.90
16384;DHT22;8301;51.440;6.610;2022-10-31T13:32:00;19.30;99.90
16384;DHT22;8301;51.440;6.610;2022-10-31T13:34:41;19.30;99.90
16384;DHT22;8301;51.440;6.610;2022-10-31T13:44:44;19.30;99.90
16384;DHT22;8301;51.440;6.610;2022-10-31T13:49:46;19.20;99.90
16384;DHT22;8301;51.440;6.610;2022-10-31T13:54:42;19.20;99.90
16384;DHT22;8301;51.440;6.610;2022-10-31T13:57:14;19.20;99.90
16384;DHT22;8301;51.440;6.610;2022-10-31T13:59:45;19.20;99.90
16384;DHT22;8301;51.440;6.610;2022-10-31T14:02:21;19.20;99.90
16384;DHT22;8301;51.440;6.610;2022-10-31T14:04:51;19.10;99.90
16384;DHT22;8301;51.440;6.610;2022-10-31T14:07:16;19.10;99.90
16384;DHT22;8301;51.440;6.610;2022-10-31T14:09:54;19.10;99.90
16384;DHT22;8301;51.440;6.610;2022-10-31T14:12:29;19.10;99.90
16384;DHT22;8301;51.440;6.610;2022-10-31T14:14:57;19.10;99.90
16384;DHT22;8301;51.440;6.610;2022-10-31T14:17:25;19.10;99.90
16384;DHT22;8301;51.440;6.610;2022-10-31T14:20:31;19.20;99.90
16384;DHT22;8301;51.440;6.610;2022-10-31T14:22:54;19.20;99.90
16384;DHT22;8301;51.440;6.610;2022-10-31T14:25:28;19.20;99.90
16384;DHT22;8301;51.440;6.610;2022-10-31T14:27:56;19.20;99.90
16384;DHT22;8301;51.440;6.610;2022-10-31T14:30:24;19.20;99.90
16384;DHT22;8301;51.440;6.610;2022-10-31T14:32:54;19.20;99.90
16384;DHT22;8301;51.440;6.610;2022-10-31T14:35:22;19.20;99.90
16384;DHT22;8301;51.440;6.610;2022-10-31T14:41:02;19.10;99.90
16384;DHT22;8301;51.440;6.610;2022-10-31T14:46:09;19.10;99.90
16384;DHT22;8301;51.440;6.610;2022-10-31T14:48:39;19.10;99.90
16384;DHT22;8301;51.440;6.610;2022-10-31T14:51:09;19.10;99.90
16384;DHT22;8301;51.440;6.610;2022-10-31T14:53:56;19.10;99.90
16384;DHT22;8301;51.440;6.610;2022-10-31T14:56:03;19.10;99.90
16384;DHT22;8301;51.440;6.610;2022-10-31T14:58:37;19.10;99.90
16384;DHT22;8301;51.440;6.610;2022-10-31T15:01:03;19.10;99.90
16384;DHT22;8301;51.440;6.610;2022-10-31T15:03:38;19.10;99.90
16384;DHT22;8301;51.440;6.610;2022-10-31T15:06:05;19.10;99.90
16384;DHT22;8301;51.440;6.610;2022-10-31T15:08:34;19.10;99.90
16384;DHT22;8301;51.440;6.610;2022-10-31T15:11:14;19.00;99.90
16384;DHT22;8301;51.440;6.610;2022-10-31T15:13:49;19.00;99.90
16384;DHT22;8301;51.440;6.610;2022-10-31T15:16:13;19.00;99.90
16384;DHT22;8301;51.440;6.610;2022-10-31T15:18:56;18.90;99.90
16384;DHT22;8301;51.440;6.610;2022-10-31T15:21:24;18.90;99.90
16384;DHT22;8301;51.440;6.610;2022-10-31T15:24:00;18.80;99.90
16384;DHT22;8301;51.440;6.610;2022-10-31T15:26:34;18.80;99.90
16384;DHT22;8301;51.440;6.610;2022-10-31T15:28:59;18.80;99.90
16384;DHT22;8301;51.440;6.610;2022-10-31T15:31:28;18.70;99.90
16384;DHT22;8301;51.440;6.610;2022-10-31T15:33:59;18.60;99.90
16384;DHT22;8301;51.440;6.610;2022-10-31T15:36:26;18.60;99.90
16384;DHT22;8301;51.440;6.610;2022-10-31T15:38:54;18.50;99.90
16384;DHT22;8301;51.440;6.610;2022-10-31T15:44:06;18.30;99.90
16384;DHT22;8301;51.440;6.610;2022-10-31T15:46:31;18.20;99.90
16384;DHT22;8301;51.440;6.610;2022-10-31T15:48:59;18.10;99.90
16384;DHT22;8301;51.440;6.610;2022-10-31T15:51:27;18.10;99.90
16384;DHT22;8301;51.440;6.610;2022-10-31T15:53:56;18.10;99.90
16384;DHT22;8301;51.440;6.610;2022-10-31T15:56:24;18.10;99.90
16384;DHT22;8301;51.440;6.610;2022-10-31T15:58:52;18.00;99.90
16384;DHT22;8301;51.440;6.610;2022-10-31T16:06:28;18.00;99.90
16384;DHT22;8301;51.440;6.610;2022-10-31T16:08:55;17.90;99.90
16384;DHT22;8301;51.440;6.610;2022-10-31T16:11:38;17.90;99.90
16384;DHT22;8301;51.440;6.610;2022-10-31T16:14:14;17.80;99.90
16384;DHT22;8301;51.440;6.610;2022-10-31T16:16:41;17.80;99.90
16384;DHT22;8301;51.440;6.610;2022-10-31T16:19:05;17.80;99.90
16384;DHT22;8301;51.440;6.610;2022-10-31T16:21:36;17.70;99.90
16384;DHT22;8301;51.440;6.610;2022-10-31T16:24:13;17.70;99.90
16384;DHT22;8301;51.440;6.610;2022-10-31T16:26:32;17.80;99.90
16384;DHT22;8301;51.440;6.610;2022-10-31T16:28:59;17.70;99.90
16384;DHT22;8301;51.440;6.610;2022-10-31T16:31:36;17.70;99.90
16384;DHT22;8301;51.440;6.610;2022-10-31T16:34:04;17.60;99.90
16384;DHT22;8301;51.440;6.610;2022-10-31T16:36:33;17.60;99.90
16384;DHT22;8301;51.440;6.610;2022-10-31T16:39:02;17.50;99.90
16384;DHT22;8301;51.440;6.610;2022-10-31T16:41:29;17.40;99.90
16384;DHT22;8301;51.440;6.610;2022-10-31T16:43:56;17.30;99.90
16384;DHT22;8301;51.440;6.610;2022-10-31T16:46:24;17.30;99.90
16384;DHT22;8301;51.440;6.610;2022-10-31T16:48:51;17.20;99.90
16384;DHT22;8301;51.440;6.610;2022-10-31T16:51:19;17.10;99.90
16384;DHT22;8301;51.440;6.610;2022-10-31T16:53:47;16.90;99.90
16384;DHT22;8301;51.440;6.610;2022-10-31T16:56:24;16.80;99.90
16384;DHT22;8301;51.440;6.610;2022-10-31T16:58:50;16.70;99.90
16384;DHT22;8301;51.440;6.610;2022-10-31T17:01:17;16.60;99.90
16384;DHT22;8301;51.440;6.610;2022-10-31T17:03:43;16.50;99.90
16384;DHT22;8301;51.440;6.610;2022-10-31T17:06:11;16.50;99.90
16384;DHT22;8301;51.440;6.610;2022-10-31T17:08:38;16.40;99.90
16384;DHT22;8301;51.440;6.610;2022-10-31T17:11:05;16.30;99.90
16384;DHT22;8301;51.440;6.610;2022-10-31T17:13:38;16.30;99.90
16384;DHT22;8301;51.440;6.610;2022-10-31T17:16:05;16.30;99.90
16384;DHT22;8301;51.440;6.610;2022-10-31T17:18:32;16.30;99.90
16384;DHT22;8301;51.440;6.610;2022-10-31T17:20:59;16.30;99.90
16384;DHT22;8301;51.440;6.610;2022-10-31T17:23:27;16.30;99.90
16384;DHT22;8301;51.440;6.610;2022-10-31T17:25:54;16.40;99.90
16384;DHT22;8301;51.440;6.610;2022-10-31T17:28:21;16.50;99.90
16384;DHT22;8301;51.440;6.610;2022-10-31T17:30:48;16.50;99.90
16384;DHT22;8301;51.440;6.610;2022-10-31T17:33:15;16.60;99.90
16384;DHT22;8301;51.440;6.610;2022-10-31T17:35:42;16.70;99.90
16384;DHT22;8301;51.440;6.610;2022-10-31T17:38:12;16.70;99.90
16384;DHT22;8301;51.440;6.610;2022-10-31T17:40:39;16.80;99.90
16384;DHT22;8301;51.440;6.610;2022-10-31T17:43:07;16.80;99.90
16384;DHT22;8301;51.440;6.610;2022-10-31T17:45:34;16.90;99.90
16384;DHT22;8301;51.440;6.610;2022-10-31T17:48:02;17.00;99.90